• Join FlightAware (Why Join?)
  • Login
  • US Flag 
10:09PM EDT


 

Airport Tracker/Info


-or-


 

Live Flight TrackerFlight Track Log ✈ UCA596 ✈ 30-Aug-2013 ✈ KIAD - KBGM

Flight Track Log - Related Links

Times and Time Zones

All times are in EDT time to prevent confusion due to time zone crossing. See the UCA596 flight status page for this flight to view local times or setup timezone preferences in your user account.

Time Position Orientation Groundspeed Altitude Reporting Facility
EDT Latitude Longitude Course Direction KTS MPH feet Rate Location/Type
02:20PM 38.9667 -77.5167 288° West 147 169 2,200  Level Potomac TRACON
02:21PM 38.9833 -77.5833 288° West 177 204 3,500 1,380 Climbing Potomac TRACON
02:22PM 39.0000 -77.6333 293° West 177 204 4,900 1,560 Climbing Potomac TRACON
02:23PM 39.0500 -77.6667 333° Northwest 184 212 6,500 1,380 Climbing Potomac TRACON
02:24PM 39.1000 -77.6833 345° North 189 217 7,700 900 Climbing Potomac TRACON
02:25PM 39.1500 -77.7000 346° North 220 253 8,400 840 Climbing Potomac TRACON
02:26PM 39.2167 -77.7167 349° North 223 257 9,400 840 Climbing Potomac TRACON
02:27PM 39.2725 -77.6775 29° Northeast 237 273 10,300 780 Climbing Washington Center
02:28PM 39.3294 -77.6414 26° Northeast 231 266 11,100 780 Climbing Washington Center
02:30PM 39.3883 -77.6083 23° Northeast 226 260 11,900 780 Climbing Washington Center
02:30PM 39.4475 -77.5722 25° Northeast 226 260 12,700 900 Climbing Washington Center
02:31PM 39.5064 -77.5389 24° Northeast 226 260 13,700 780 Climbing Washington Center
02:33PM 39.6058 -77.4783 25° Northeast 227 261 15,000 720 Climbing New York Center
02:34PM 39.6719 -77.4522 17° North 225 259 15,800 660 Climbing New York Center
02:35PM 39.7275 -77.4306 17° North 226 260 16,400 600 Climbing New York Center
02:36PM 39.7939 -77.3961 22° Northeast 232 267 17,100 600 Climbing New York Center
02:37PM 39.8475 -77.3689 21° North 232 267 17,700 540 Climbing New York Center
02:38PM 39.9142 -77.3344 22° Northeast 237 273 18,300 600 Climbing New York Center
02:39PM 39.9700 -77.3044 22° Northeast 237 273 18,900 300 Climbing New York Center
02:40PM 40.0408 -77.2706 20° North 237 273 19,000  Climbing New York Center
02:41PM 40.1008 -77.2408 21° North 250 288 19,000  Level New York Center
02:42PM 40.1781 -77.1989 23° Northeast 260 299 19,000  Level New York Center
02:43PM 40.2403 -77.1667 22° Northeast 260 299 19,000  Level New York Center
02:44PM 40.3194 -77.1278 21° North 260 299 19,000  Level New York Center
02:45PM 40.3817 -77.0953 22° Northeast 260 299 19,000  Level New York Center
02:46PM 40.4589 -77.0558 21° North 260 299 19,000 -120 Level New York Center
02:47PM 40.5233 -77.0208 22° Northeast 266 306 18,800 -600 Descending New York Center
02:48PM 40.6050 -76.9764 22° Northeast 272 313 17,800 -1,020 Descending New York Center
02:50PM 40.6860 -76.9323 22° Northeast  Level FlightAware Approximate
02:50PM 40.7592 -76.8944 22° Northeast 296 341 15,800  Level New York Center
02:51PM 40.8178 -76.8503 30° Northeast 276 318 15,000 -420 Descending New York Center
02:52PM 40.8886 -76.8100 23° Northeast 247 284 15,000  Level New York Center
02:53PM 40.9422 -76.7817 22° Northeast 239 275 15,000 -60 Level New York Center
02:54PM 41.0150 -76.7442 21° North 239 275 14,900  Descending New York Center
02:55PM 41.0831 -76.7117 20° North 244 281 15,000  Climbing New York Center
02:56PM 41.1497 -76.6733 23° Northeast 250 288 14,900 -60 Descending New York Center
02:57PM 41.2181 -76.6378 21° North 257 296 14,900  Level New York Center
02:58PM 41.2803 -76.6047 22° Northeast 257 296 14,900  Level New York Center
02:59PM 41.3572 -76.5642 22° Northeast 257 296 14,900  Level New York Center
03:00PM 41.4256 -76.5286 21° North 257 296 14,900 -120 Level New York Center
03:01PM 41.4961 -76.4931 21° North 257 296 14,700 -600 Descending New York Center
03:02PM 41.5622 -76.4572 22° Northeast 265 305 13,700 -1,080 Descending New York Center
03:03PM 41.6369 -76.4192 21° North 280 322 12,600 -1,200 Descending New York Center
03:04PM 41.7203 -76.3733 22° Northeast 280 322 11,400 -1,440 Descending New York Center
03:05PM 41.7908 -76.3347 22° Northeast 280 322 9,800 -1,560 Descending New York Center
03:06PM 41.8558 -76.2844 30° Northeast 270 311 8,300 -1,380 Descending New York Center
03:07PM 41.9100 -76.2389 32° Northeast 263 303 7,100 -1,140 Descending New York Center
03:08PM 41.9728 -76.1828 34° Northeast 263 303 6,100 -1,200 Descending New York Center
03:09PM 42.0383 -76.1183 36° Northeast 268 308 4,800 -1,080 Descending New York Center
03:10PM 42.0847 -76.0550 45° Northeast 263 303 4,000 -840 Descending New York Center
03:11PM 42.1233 -75.9853 53° Northeast 244 281 3,200 -780 Descending New York Center
03:12PM 42.1708 -75.9472 31° Northeast 217 250 2,500 -600 Descending New York Center
03:13PM 42.2172 -75.9283 17° North 173 199 2,000 5,220 Descending New York Center
03:14PM 42.2603 -75.8953 30° Northeast 173 199 13,000 5,460 Climbing New York Center
03:15PM 42.3033 -75.8650 27° Northeast 173 199 13,000  Level New York Center
03:16PM 42.3464 -75.8319 30° Northeast 173 199 13,000  Level New York Center
03:17PM 42.3636 -75.8192 29° Northeast 173 199 13,000  Level New York Center
03:19PM 42.2904 -75.8853 214° Southwest  Level FlightAware Approximate
03:26PM 42.2000 -75.9667 220° Southwest  Level FlightAware Approximate
03:27PM 42.2086 -75.9797 220° Southwest  Level Estimated
03:28PM 42.2086 -75.9797 220° Southwest  Level Estimated
03:29PM 42.2086 -75.9797 220° Southwest  Level Estimated
03:30PM 42.2086 -75.9797 220° Southwest  Level Estimated
03:31PM 42.2086 -75.9797 220° Southwest  Level Estimated
03:32PM 42.2086 -75.9797 220° Southwest  Level Estimated
03:33PM 42.2086 -75.9797 220° Southwest  Level Estimated
03:34PM 42.2086 -75.9797 220° Southwest  Level Estimated
03:35PM 42.2086 -75.9797 220° Southwest  Level Estimated